sensor_id;sensor_type;location;lat;lon;timestamp;P1;P2;P0
62631;PMS5003;48703;51.248;-0.546;2022-08-18T00:02:24;12.73;11.36;
62631;PMS5003;48703;51.248;-0.546;2022-08-18T00:05:24;13.27;12.61;
62631;PMS5003;48703;51.248;-0.546;2022-08-18T00:08:26;13.40;12.87;
62631;PMS5003;48703;51.248;-0.546;2022-08-18T00:11:30;13.49;12.40;
62631;PMS5003;48703;51.248;-0.546;2022-08-18T00:14:28;12.54;12.03;
62631;PMS5003;48703;51.248;-0.546;2022-08-18T00:17:30;12.69;12.06;
62631;PMS5003;48703;51.248;-0.546;2022-08-18T00:20:31;15.53;14.97;
62631;PMS5003;48703;51.248;-0.546;2022-08-18T00:23:32;13.37;12.11;
62631;PMS5003;48703;51.248;-0.546;2022-08-18T00:26:34;15.55;13.97;
62631;PMS5003;48703;51.248;-0.546;2022-08-18T00:29:35;15.60;14.47;
62631;PMS5003;48703;51.248;-0.546;2022-08-18T00:32:38;16.81;14.06;
62631;PMS5003;48703;51.248;-0.546;2022-08-18T00:35:38;14.86;14.39;
62631;PMS5003;48703;51.248;-0.546;2022-08-18T00:38:40;16.24;12.74;
62631;PMS5003;48703;51.248;-0.546;2022-08-18T00:41:42;13.44;13.01;
62631;PMS5003;48703;51.248;-0.546;2022-08-18T00:44:43;14.94;13.61;
62631;PMS5003;48703;51.248;-0.546;2022-08-18T00:47:44;15.46;13.83;
62631;PMS5003;48703;51.248;-0.546;2022-08-18T00:50:46;17.54;16.93;
62631;PMS5003;48703;51.248;-0.546;2022-08-18T00:53:49;17.27;15.59;
62631;PMS5003;48703;51.248;-0.546;2022-08-18T00:56:49;17.16;15.39;
62631;PMS5003;48703;51.248;-0.546;2022-08-18T00:59:51;16.04;15.01;
62631;PMS5003;48703;51.248;-0.546;2022-08-18T01:02:52;15.89;15.29;
62631;PMS5003;48703;51.248;-0.546;2022-08-18T01:05:54;16.70;14.87;
62631;PMS5003;48703;51.248;-0.546;2022-08-18T01:08:54;17.54;15.74;
62631;PMS5003;48703;51.248;-0.546;2022-08-18T01:11:55;16.76;16.51;
62631;PMS5003;48703;51.248;-0.546;2022-08-18T01:14:56;17.36;16.10;
62631;PMS5003;48703;51.248;-0.546;2022-08-18T01:17:59;17.11;15.37;
62631;PMS5003;48703;51.248;-0.546;2022-08-18T01:21:02;18.99;16.46;
62631;PMS5003;48703;51.248;-0.546;2022-08-18T01:24:03;18.59;16.45;
62631;PMS5003;48703;51.248;-0.546;2022-08-18T01:27:03;16.36;15.86;
62631;PMS5003;48703;51.248;-0.546;2022-08-18T01:30:05;16.00;14.66;
62631;PMS5003;48703;51.248;-0.546;2022-08-18T01:33:05;15.86;13.77;
62631;PMS5003;48703;51.248;-0.546;2022-08-18T01:36:09;16.03;14.31;
62631;PMS5003;48703;51.248;-0.546;2022-08-18T01:39:10;14.86;13.81;
62631;PMS5003;48703;51.248;-0.546;2022-08-18T01:42:10;16.06;15.12;
62631;PMS5003;48703;51.248;-0.546;2022-08-18T01:45:12;14.90;14.09;
62631;PMS5003;48703;51.248;-0.546;2022-08-18T01:48:12;15.40;14.96;
62631;PMS5003;48703;51.248;-0.546;2022-08-18T01:51:13;16.65;15.12;
62631;PMS5003;48703;51.248;-0.546;2022-08-18T01:54:14;15.21;14.97;
62631;PMS5003;48703;51.248;-0.546;2022-08-18T01:57:16;15.64;13.87;
62631;PMS5003;48703;51.248;-0.546;2022-08-18T02:00:17;18.83;16.19;
62631;PMS5003;48703;51.248;-0.546;2022-08-18T02:03:18;16.16;16.01;
62631;PMS5003;48703;51.248;-0.546;2022-08-18T02:06:19;18.59;15.72;
62631;PMS5003;48703;51.248;-0.546;2022-08-18T02:09:21;18.39;16.87;
62631;PMS5003;48703;51.248;-0.546;2022-08-18T02:12:22;18.36;15.75;
62631;PMS5003;48703;51.248;-0.546;2022-08-18T02:15:23;13.81;12.96;
62631;PMS5003;48703;51.248;-0.546;2022-08-18T02:18:26;16.62;15.33;
62631;PMS5003;48703;51.248;-0.546;2022-08-18T02:21:26;14.66;13.46;
62631;PMS5003;48703;51.248;-0.546;2022-08-18T02:24:27;15.69;14.24;
62631;PMS5003;48703;51.248;-0.546;2022-08-18T02:27:28;17.99;15.42;
62631;PMS5003;48703;51.248;-0.546;2022-08-18T02:30:29;14.87;13.65;
62631;PMS5003;48703;51.248;-0.546;2022-08-18T02:33:30;15.49;15.19;
62631;PMS5003;48703;51.248;-0.546;2022-08-18T02:36:31;18.09;16.14;
62631;PMS5003;48703;51.248;-0.546;2022-08-18T02:39:33;18.46;16.17;
62631;PMS5003;48703;51.248;-0.546;2022-08-18T02:42:35;15.56;14.80;
62631;PMS5003;48703;51.248;-0.546;2022-08-18T02:45:37;16.79;14.36;
62631;PMS5003;48703;51.248;-0.546;2022-08-18T02:48:38;18.49;14.69;
62631;PMS5003;48703;51.248;-0.546;2022-08-18T02:51:39;14.74;13.07;
62631;PMS5003;48703;51.248;-0.546;2022-08-18T02:54:40;14.59;13.40;
62631;PMS5003;48703;51.248;-0.546;2022-08-18T02:57:42;13.30;11.69;
62631;PMS5003;48703;51.248;-0.546;2022-08-18T03:00:43;15.90;15.33;
62631;PMS5003;48703;51.248;-0.546;2022-08-18T03:03:44;17.13;15.70;
62631;PMS5003;48703;51.248;-0.546;2022-08-18T03:06:44;17.83;16.43;
62631;PMS5003;48703;51.248;-0.546;2022-08-18T03:09:46;15.87;14.03;
62631;PMS5003;48703;51.248;-0.546;2022-08-18T03:12:47;14.33;13.43;
62631;PMS5003;48703;51.248;-0.546;2022-08-18T03:15:48;18.54;16.99;
62631;PMS5003;48703;51.248;-0.546;2022-08-18T03:18:50;16.32;14.70;
62631;PMS5003;48703;51.248;-0.546;2022-08-18T03:21:51;16.79;15.50;
62631;PMS5003;48703;51.248;-0.546;2022-08-18T03:24:52;18.31;16.41;
62631;PMS5003;48703;51.248;-0.546;2022-08-18T03:27:54;17.61;15.46;
62631;PMS5003;48703;51.248;-0.546;2022-08-18T03:30:55;16.39;15.75;
62631;PMS5003;48703;51.248;-0.546;2022-08-18T03:33:56;19.72;17.91;
62631;PMS5003;48703;51.248;-0.546;2022-08-18T03:36:56;17.13;14.76;
62631;PMS5003;48703;51.248;-0.546;2022-08-18T03:39:58;19.24;16.76;
62631;PMS5003;48703;51.248;-0.546;2022-08-18T03:43:01;16.77;14.73;
62631;PMS5003;48703;51.248;-0.546;2022-08-18T03:46:01;16.78;16.00;
62631;PMS5003;48703;51.248;-0.546;2022-08-18T03:49:02;16.41;15.41;
62631;PMS5003;48703;51.248;-0.546;2022-08-18T03:52:06;17.23;16.17;
62631;PMS5003;48703;51.248;-0.546;2022-08-18T03:55:05;19.23;18.03;
62631;PMS5003;48703;51.248;-0.546;2022-08-18T03:58:06;19.04;17.41;
62631;PMS5003;48703;51.248;-0.546;2022-08-18T04:01:08;18.33;17.99;
62631;PMS5003;48703;51.248;-0.546;2022-08-18T04:04:09;16.39;15.80;
62631;PMS5003;48703;51.248;-0.546;2022-08-18T04:07:10;17.00;15.54;
62631;PMS5003;48703;51.248;-0.546;2022-08-18T04:10:10;16.72;15.22;
62631;PMS5003;48703;51.248;-0.546;2022-08-18T04:13:11;15.83;14.10;
62631;PMS5003;48703;51.248;-0.546;2022-08-18T04:16:12;17.56;15.91;
62631;PMS5003;48703;51.248;-0.546;2022-08-18T04:19:13;17.59;14.81;
62631;PMS5003;48703;51.248;-0.546;2022-08-18T04:22:15;19.36;17.54;
62631;PMS5003;48703;51.248;-0.546;2022-08-18T04:25:16;18.39;16.61;
62631;PMS5003;48703;51.248;-0.546;2022-08-18T04:28:17;18.29;17.40;
62631;PMS5003;48703;51.248;-0.546;2022-08-18T04:31:18;16.66;15.90;
62631;PMS5003;48703;51.248;-0.546;2022-08-18T04:34:20;18.70;15.83;
62631;PMS5003;48703;51.248;-0.546;2022-08-18T04:37:21;18.10;15.79;
62631;PMS5003;48703;51.248;-0.546;2022-08-18T04:40:22;17.09;14.19;
62631;PMS5003;48703;51.248;-0.546;2022-08-18T04:43:24;14.83;13.40;
62631;PMS5003;48703;51.248;-0.546;2022-08-18T04:46:25;21.34;18.31;
62631;PMS5003;48703;51.248;-0.546;2022-08-18T04:49:25;18.55;16.65;
62631;PMS5003;48703;51.248;-0.546;2022-08-18T04:52:26;24.63;20.47;
62631;PMS5003;48703;51.248;-0.546;2022-08-18T04:55:28;22.04;18.86;
62631;PMS5003;48703;51.248;-0.546;2022-08-18T04:58:29;21.74;19.23;
62631;PMS5003;48703;51.248;-0.546;2022-08-18T05:01:33;21.89;19.63;
62631;PMS5003;48703;51.248;-0.546;2022-08-18T05:04:33;23.71;20.67;
62631;PMS5003;48703;51.248;-0.546;2022-08-18T05:07:34;21.26;20.00;
62631;PMS5003;48703;51.248;-0.546;2022-08-18T05:10:35;22.71;20.83;
62631;PMS5003;48703;51.248;-0.546;2022-08-18T05:13:37;20.30;17.96;
62631;PMS5003;48703;51.248;-0.546;2022-08-18T05:16:38;18.13;16.99;
62631;PMS5003;48703;51.248;-0.546;2022-08-18T05:19:40;21.83;17.62;
62631;PMS5003;48703;51.248;-0.546;2022-08-18T05:22:41;20.71;18.75;
62631;PMS5003;48703;51.248;-0.546;2022-08-18T05:25:42;20.60;17.56;
62631;PMS5003;48703;51.248;-0.546;2022-08-18T05:28:44;22.10;19.47;
62631;PMS5003;48703;51.248;-0.546;2022-08-18T05:31:46;17.30;16.70;
62631;PMS5003;48703;51.248;-0.546;2022-08-18T05:34:46;16.63;16.53;
62631;PMS5003;48703;51.248;-0.546;2022-08-18T05:37:51;20.26;18.10;
62631;PMS5003;48703;51.248;-0.546;2022-08-18T05:40:55;21.83;18.20;
62631;PMS5003;48703;51.248;-0.546;2022-08-18T05:43:51;19.43;17.30;
62631;PMS5003;48703;51.248;-0.546;2022-08-18T05:46:52;20.83;17.78;
62631;PMS5003;48703;51.248;-0.546;2022-08-18T05:49:54;23.55;22.01;
62631;PMS5003;48703;51.248;-0.546;2022-08-18T05:52:55;22.45;19.96;
62631;PMS5003;48703;51.248;-0.546;2022-08-18T05:55:57;21.86;19.07;
62631;PMS5003;48703;51.248;-0.546;2022-08-18T05:58:56;21.61;19.29;
62631;PMS5003;48703;51.248;-0.546;2022-08-18T06:01:59;24.30;22.13;
62631;PMS5003;48703;51.248;-0.546;2022-08-18T06:05:00;21.41;20.17;
62631;PMS5003;48703;51.248;-0.546;2022-08-18T06:08:01;23.87;22.04;
62631;PMS5003;48703;51.248;-0.546;2022-08-18T06:11:01;21.46;19.42;
62631;PMS5003;48703;51.248;-0.546;2022-08-18T06:14:02;24.46;22.54;
62631;PMS5003;48703;51.248;-0.546;2022-08-18T06:17:06;25.27;21.87;
62631;PMS5003;48703;51.248;-0.546;2022-08-18T06:20:06;24.81;23.45;
62631;PMS5003;48703;51.248;-0.546;2022-08-18T06:23:09;23.57;21.13;
62631;PMS5003;48703;51.248;-0.546;2022-08-18T06:26:11;27.16;23.81;
62631;PMS5003;48703;51.248;-0.546;2022-08-18T06:29:13;28.46;26.59;
62631;PMS5003;48703;51.248;-0.546;2022-08-18T06:32:13;23.80;22.17;
62631;PMS5003;48703;51.248;-0.546;2022-08-18T06:35:14;25.69;23.93;
62631;PMS5003;48703;51.248;-0.546;2022-08-18T06:41:16;27.80;24.93;
62631;PMS5003;48703;51.248;-0.546;2022-08-18T06:44:18;27.54;25.75;
62631;PMS5003;48703;51.248;-0.546;2022-08-18T06:47:19;27.26;24.07;
62631;PMS5003;48703;51.248;-0.546;2022-08-18T06:50:20;27.49;25.01;
62631;PMS5003;48703;51.248;-0.546;2022-08-18T06:53:21;25.89;22.59;
62631;PMS5003;48703;51.248;-0.546;2022-08-18T06:56:23;27.25;25.32;
62631;PMS5003;48703;51.248;-0.546;2022-08-18T06:59:24;26.79;24.04;
62631;PMS5003;48703;51.248;-0.546;2022-08-18T07:02:30;28.07;24.69;
62631;PMS5003;48703;51.248;-0.546;2022-08-18T07:05:28;27.33;25.24;
62631;PMS5003;48703;51.248;-0.546;2022-08-18T07:08:30;25.74;23.59;
62631;PMS5003;48703;51.248;-0.546;2022-08-18T07:11:30;26.42;23.48;
62631;PMS5003;48703;51.248;-0.546;2022-08-18T07:14:30;29.46;27.06;
62631;PMS5003;48703;51.248;-0.546;2022-08-18T07:17:32;30.07;26.42;
62631;PMS5003;48703;51.248;-0.546;2022-08-18T07:20:40;26.81;23.91;
62631;PMS5003;48703;51.248;-0.546;2022-08-18T07:23:35;28.63;25.32;
62631;PMS5003;48703;51.248;-0.546;2022-08-18T07:26:56;26.83;25.00;
62631;PMS5003;48703;51.248;-0.546;2022-08-18T07:29:38;27.87;25.77;
62631;PMS5003;48703;51.248;-0.546;2022-08-18T07:32:39;29.17;25.49;
62631;PMS5003;48703;51.248;-0.546;2022-08-18T07:35:41;30.19;28.12;
62631;PMS5003;48703;51.248;-0.546;2022-08-18T07:38:41;28.42;27.61;
62631;PMS5003;48703;51.248;-0.546;2022-08-18T07:41:43;28.39;25.91;
62631;PMS5003;48703;51.248;-0.546;2022-08-18T07:44:45;30.29;27.86;
62631;PMS5003;48703;51.248;-0.546;2022-08-18T07:47:47;30.64;27.59;
62631;PMS5003;48703;51.248;-0.546;2022-08-18T07:50:47;31.80;28.90;
62631;PMS5003;48703;51.248;-0.546;2022-08-18T07:53:49;31.01;28.99;
62631;PMS5003;48703;51.248;-0.546;2022-08-18T07:56:49;31.74;28.29;
62631;PMS5003;48703;51.248;-0.546;2022-08-18T07:59:50;28.93;26.93;
62631;PMS5003;48703;51.248;-0.546;2022-08-18T08:02:52;32.50;28.80;
62631;PMS5003;48703;51.248;-0.546;2022-08-18T08:05:53;31.19;28.59;
62631;PMS5003;48703;51.248;-0.546;2022-08-18T08:08:56;31.74;28.77;
62631;PMS5003;48703;51.248;-0.546;2022-08-18T08:11:55;34.83;30.03;
62631;PMS5003;48703;51.248;-0.546;2022-08-18T08:14:57;34.36;28.33;
62631;PMS5003;48703;51.248;-0.546;2022-08-18T08:17:58;30.85;28.94;
62631;PMS5003;48703;51.248;-0.546;2022-08-18T08:20:59;33.43;29.85;
62631;PMS5003;48703;51.248;-0.546;2022-08-18T08:24:05;31.19;28.43;
62631;PMS5003;48703;51.248;-0.546;2022-08-18T08:27:03;30.72;28.99;
62631;PMS5003;48703;51.248;-0.546;2022-08-18T08:30:04;30.32;27.48;
62631;PMS5003;48703;51.248;-0.546;2022-08-18T08:33:05;29.39;26.97;
62631;PMS5003;48703;51.248;-0.546;2022-08-18T08:36:06;28.93;26.17;
62631;PMS5003;48703;51.248;-0.546;2022-08-18T08:39:09;27.54;26.71;
62631;PMS5003;48703;51.248;-0.546;2022-08-18T08:42:10;30.94;28.19;
62631;PMS5003;48703;51.248;-0.546;2022-08-18T08:45:10;29.94;27.81;
62631;PMS5003;48703;51.248;-0.546;2022-08-18T08:48:12;28.93;27.16;
62631;PMS5003;48703;51.248;-0.546;2022-08-18T08:51:19;27.16;25.51;
62631;PMS5003;48703;51.248;-0.546;2022-08-18T08:54:15;29.38;26.03;
62631;PMS5003;48703;51.248;-0.546;2022-08-18T08:57:14;30.83;27.30;
62631;PMS5003;48703;51.248;-0.546;2022-08-18T09:00:16;28.67;25.54;
62631;PMS5003;48703;51.248;-0.546;2022-08-18T09:03:20;30.83;27.84;
62631;PMS5003;48703;51.248;-0.546;2022-08-18T09:06:20;29.39;26.38;
62631;PMS5003;48703;51.248;-0.546;2022-08-18T09:09:24;27.46;25.94;
62631;PMS5003;48703;51.248;-0.546;2022-08-18T09:12:28;27.19;25.13;
62631;PMS5003;48703;51.248;-0.546;2022-08-18T09:16:25;29.06;26.12;
62631;PMS5003;48703;51.248;-0.546;2022-08-18T09:19:32;26.99;23.43;
62631;PMS5003;48703;51.248;-0.546;2022-08-18T09:22:30;29.78;26.29;
62631;PMS5003;48703;51.248;-0.546;2022-08-18T09:25:30;28.67;26.29;
62631;PMS5003;48703;51.248;-0.546;2022-08-18T09:28:41;30.33;27.25;
62631;PMS5003;48703;51.248;-0.546;2022-08-18T09:31:30;27.64;24.71;
62631;PMS5003;48703;51.248;-0.546;2022-08-18T09:34:36;27.54;24.49;
62631;PMS5003;48703;51.248;-0.546;2022-08-18T09:37:37;28.36;27.00;
62631;PMS5003;48703;51.248;-0.546;2022-08-18T09:40:34;26.83;23.75;
62631;PMS5003;48703;51.248;-0.546;2022-08-18T09:43:37;30.03;26.27;
62631;PMS5003;48703;51.248;-0.546;2022-08-18T09:46:55;28.25;27.12;
62631;PMS5003;48703;51.248;-0.546;2022-08-18T09:49:41;30.93;28.67;
62631;PMS5003;48703;51.248;-0.546;2022-08-18T09:52:48;29.42;27.72;
62631;PMS5003;48703;51.248;-0.546;2022-08-18T09:55:57;31.20;28.13;
62631;PMS5003;48703;51.248;-0.546;2022-08-18T09:58:48;31.74;27.22;
62631;PMS5003;48703;51.248;-0.546;2022-08-18T10:01:44;30.22;28.10;
62631;PMS5003;48703;51.248;-0.546;2022-08-18T10:04:46;32.06;29.71;
62631;PMS5003;48703;51.248;-0.546;2022-08-18T10:07:48;29.30;26.97;
62631;PMS5003;48703;51.248;-0.546;2022-08-18T10:10:50;31.28;27.75;
62631;PMS5003;48703;51.248;-0.546;2022-08-18T10:13:56;28.12;26.39;
62631;PMS5003;48703;51.248;-0.546;2022-08-18T10:16:55;28.64;26.28;
62631;PMS5003;48703;51.248;-0.546;2022-08-18T10:19:55;29.39;26.87;
62631;PMS5003;48703;51.248;-0.546;2022-08-18T10:22:55;27.93;27.07;
62631;PMS5003;48703;51.248;-0.546;2022-08-18T10:25:57;29.28;26.71;
62631;PMS5003;48703;51.248;-0.546;2022-08-18T10:28:59;29.83;26.54;
62631;PMS5003;48703;51.248;-0.546;2022-08-18T10:33:04;26.09;23.09;
62631;PMS5003;48703;51.248;-0.546;2022-08-18T10:35:00;25.65;22.16;
62631;PMS5003;48703;51.248;-0.546;2022-08-18T10:38:01;25.01;23.29;
62631;PMS5003;48703;51.248;-0.546;2022-08-18T10:41:04;29.35;26.22;
62631;PMS5003;48703;51.248;-0.546;2022-08-18T10:44:04;26.42;24.20;
62631;PMS5003;48703;51.248;-0.546;2022-08-18T10:47:06;25.42;23.58;
62631;PMS5003;48703;51.248;-0.546;2022-08-18T10:50:08;29.04;27.04;
62631;PMS5003;48703;51.248;-0.546;2022-08-18T10:53:10;25.33;24.64;
62631;PMS5003;48703;51.248;-0.546;2022-08-18T10:56:17;30.91;27.04;
62631;PMS5003;48703;51.248;-0.546;2022-08-18T10:59:15;25.51;23.45;
62631;PMS5003;48703;51.248;-0.546;2022-08-18T11:02:17;29.24;25.41;
62631;PMS5003;48703;51.248;-0.546;2022-08-18T11:05:17;28.07;25.64;
62631;PMS5003;48703;51.248;-0.546;2022-08-18T11:08:17;26.72;24.97;
62631;PMS5003;48703;51.248;-0.546;2022-08-18T11:11:19;24.87;23.11;
62631;PMS5003;48703;51.248;-0.546;2022-08-18T11:14:35;29.28;25.35;
62631;PMS5003;48703;51.248;-0.546;2022-08-18T11:17:21;26.81;24.99;
62631;PMS5003;48703;51.248;-0.546;2022-08-18T11:20:20;27.24;25.35;
62631;PMS5003;48703;51.248;-0.546;2022-08-18T11:23:21;25.78;23.96;
62631;PMS5003;48703;51.248;-0.546;2022-08-18T11:26:22;23.14;22.76;
62631;PMS5003;48703;51.248;-0.546;2022-08-18T11:29:25;25.75;23.64;
62631;PMS5003;48703;51.248;-0.546;2022-08-18T11:32:26;23.89;21.10;
62631;PMS5003;48703;51.248;-0.546;2022-08-18T11:35:25;25.75;23.96;
62631;PMS5003;48703;51.248;-0.546;2022-08-18T11:38:27;24.64;23.04;
62631;PMS5003;48703;51.248;-0.546;2022-08-18T11:41:28;22.90;21.30;
62631;PMS5003;48703;51.248;-0.546;2022-08-18T11:44:29;20.40;18.30;
62631;PMS5003;48703;51.248;-0.546;2022-08-18T11:47:30;22.17;19.04;
62631;PMS5003;48703;51.248;-0.546;2022-08-18T11:50:31;24.45;21.94;
62631;PMS5003;48703;51.248;-0.546;2022-08-18T11:53:35;21.04;19.09;
62631;PMS5003;48703;51.248;-0.546;2022-08-18T11:56:34;21.83;20.54;
62631;PMS5003;48703;51.248;-0.546;2022-08-18T11:59:35;19.89;18.59;
62631;PMS5003;48703;51.248;-0.546;2022-08-18T12:02:35;18.91;17.84;
62631;PMS5003;48703;51.248;-0.546;2022-08-18T12:05:42;20.97;19.70;
62631;PMS5003;48703;51.248;-0.546;2022-08-18T12:08:46;20.86;20.12;
62631;PMS5003;48703;51.248;-0.546;2022-08-18T12:11:47;19.83;18.79;
62631;PMS5003;48703;51.248;-0.546;2022-08-18T12:14:50;22.67;21.42;
62631;PMS5003;48703;51.248;-0.546;2022-08-18T12:17:41;21.03;19.17;
62631;PMS5003;48703;51.248;-0.546;2022-08-18T12:20:43;17.84;16.89;
62631;PMS5003;48703;51.248;-0.546;2022-08-18T12:23:44;19.89;18.73;
62631;PMS5003;48703;51.248;-0.546;2022-08-18T12:26:45;17.00;16.66;
62631;PMS5003;48703;51.248;-0.546;2022-08-18T12:29:46;20.55;19.65;
62631;PMS5003;48703;51.248;-0.546;2022-08-18T12:32:47;21.49;19.99;
62631;PMS5003;48703;51.248;-0.546;2022-08-18T12:35:49;18.42;17.55;
62631;PMS5003;48703;51.248;-0.546;2022-08-18T12:38:50;20.74;18.77;
62631;PMS5003;48703;51.248;-0.546;2022-08-18T12:41:51;22.33;21.19;
62631;PMS5003;48703;51.248;-0.546;2022-08-18T12:44:52;17.50;16.70;
62631;PMS5003;48703;51.248;-0.546;2022-08-18T12:47:53;20.57;19.55;
62631;PMS5003;48703;51.248;-0.546;2022-08-18T12:50:54;17.90;16.70;
62631;PMS5003;48703;51.248;-0.546;2022-08-18T12:53:55;18.93;17.73;
62631;PMS5003;48703;51.248;-0.546;2022-08-18T12:56:56;17.77;17.14;
62631;PMS5003;48703;51.248;-0.546;2022-08-18T12:59:57;18.00;17.36;
62631;PMS5003;48703;51.248;-0.546;2022-08-18T13:02:59;19.17;17.31;
62631;PMS5003;48703;51.248;-0.546;2022-08-18T13:06:00;20.51;20.24;
62631;PMS5003;48703;51.248;-0.546;2022-08-18T13:09:02;18.94;16.27;
62631;PMS5003;48703;51.248;-0.546;2022-08-18T13:12:03;20.01;19.14;
62631;PMS5003;48703;51.248;-0.546;2022-08-18T13:15:04;20.73;18.94;
62631;PMS5003;48703;51.248;-0.546;2022-08-18T13:18:05;21.39;20.46;
62631;PMS5003;48703;51.248;-0.546;2022-08-18T13:21:06;23.74;21.49;
62631;PMS5003;48703;51.248;-0.546;2022-08-18T13:24:08;24.26;22.65;
62631;PMS5003;48703;51.248;-0.546;2022-08-18T13:27:09;20.69;19.87;
62631;PMS5003;48703;51.248;-0.546;2022-08-18T13:30:11;22.80;21.94;
62631;PMS5003;48703;51.248;-0.546;2022-08-18T13:33:11;25.36;24.04;
62631;PMS5003;48703;51.248;-0.546;2022-08-18T13:36:11;27.06;25.69;
62631;PMS5003;48703;51.248;-0.546;2022-08-18T13:39:12;26.70;24.97;
62631;PMS5003;48703;51.248;-0.546;2022-08-18T13:42:14;29.57;28.74;
62631;PMS5003;48703;51.248;-0.546;2022-08-18T13:45:16;28.59;27.27;
62631;PMS5003;48703;51.248;-0.546;2022-08-18T13:48:16;30.32;28.38;
62631;PMS5003;48703;51.248;-0.546;2022-08-18T13:51:18;28.17;27.16;
62631;PMS5003;48703;51.248;-0.546;2022-08-18T13:54:19;27.91;26.46;
62631;PMS5003;48703;51.248;-0.546;2022-08-18T13:57:19;29.41;27.01;
62631;PMS5003;48703;51.248;-0.546;2022-08-18T14:00:22;29.74;27.74;
62631;PMS5003;48703;51.248;-0.546;2022-08-18T14:03:21;26.33;25.10;
62631;PMS5003;48703;51.248;-0.546;2022-08-18T14:06:22;27.96;26.52;
62631;PMS5003;48703;51.248;-0.546;2022-08-18T14:09:24;25.30;24.30;
62631;PMS5003;48703;51.248;-0.546;2022-08-18T14:12:25;29.16;27.93;
62631;PMS5003;48703;51.248;-0.546;2022-08-18T14:15:28;30.61;30.58;
62631;PMS5003;48703;51.248;-0.546;2022-08-18T14:18:30;27.71;27.30;
62631;PMS5003;48703;51.248;-0.546;2022-08-18T14:21:30;27.16;25.77;
62631;PMS5003;48703;51.248;-0.546;2022-08-18T14:24:31;28.30;25.47;
62631;PMS5003;48703;51.248;-0.546;2022-08-18T14:27:33;24.37;23.04;
62631;PMS5003;48703;51.248;-0.546;2022-08-18T14:30:34;25.33;25.00;
62631;PMS5003;48703;51.248;-0.546;2022-08-18T14:33:35;22.34;22.10;
62631;PMS5003;48703;51.248;-0.546;2022-08-18T14:36:35;21.43;20.62;
62631;PMS5003;48703;51.248;-0.546;2022-08-18T14:39:37;21.40;20.84;
62631;PMS5003;48703;51.248;-0.546;2022-08-18T14:42:39;20.28;18.71;
62631;PMS5003;48703;51.248;-0.546;2022-08-18T14:45:40;18.47;17.19;
62631;PMS5003;48703;51.248;-0.546;2022-08-18T14:48:42;18.57;17.56;
62631;PMS5003;48703;51.248;-0.546;2022-08-18T14:51:43;18.04;16.81;
62631;PMS5003;48703;51.248;-0.546;2022-08-18T14:54:44;17.97;17.21;
62631;PMS5003;48703;51.248;-0.546;2022-08-18T14:57:45;17.76;15.77;
62631;PMS5003;48703;51.248;-0.546;2022-08-18T15:00:47;15.47;14.97;
62631;PMS5003;48703;51.248;-0.546;2022-08-18T15:03:48;14.99;14.64;
62631;PMS5003;48703;51.248;-0.546;2022-08-18T15:06:49;16.89;15.43;
62631;PMS5003;48703;51.248;-0.546;2022-08-18T15:09:51;15.40;15.14;
62631;PMS5003;48703;51.248;-0.546;2022-08-18T15:12:52;14.96;14.00;
62631;PMS5003;48703;51.248;-0.546;2022-08-18T15:15:53;14.66;14.07;
62631;PMS5003;48703;51.248;-0.546;2022-08-18T15:18:55;14.34;13.90;
62631;PMS5003;48703;51.248;-0.546;2022-08-18T15:21:56;12.99;12.99;
62631;PMS5003;48703;51.248;-0.546;2022-08-18T15:24:57;13.63;12.90;
62631;PMS5003;48703;51.248;-0.546;2022-08-18T15:27:58;12.67;11.86;
62631;PMS5003;48703;51.248;-0.546;2022-08-18T15:31:00;11.81;11.69;
62631;PMS5003;48703;51.248;-0.546;2022-08-18T15:34:01;10.76;10.01;
62631;PMS5003;48703;51.248;-0.546;2022-08-18T15:37:03;12.71;11.80;
62631;PMS5003;48703;51.248;-0.546;2022-08-18T15:40:07;11.46;11.27;
62631;PMS5003;48703;51.248;-0.546;2022-08-18T15:43:06;12.97;12.68;
62631;PMS5003;48703;51.248;-0.546;2022-08-18T15:46:07;11.36;10.24;
62631;PMS5003;48703;51.248;-0.546;2022-08-18T15:49:08;12.54;11.37;
62631;PMS5003;48703;51.248;-0.546;2022-08-18T15:52:10;11.04;11.04;
62631;PMS5003;48703;51.248;-0.546;2022-08-18T15:55:10;10.30;9.56;
62631;PMS5003;48703;51.248;-0.546;2022-08-18T15:58:12;8.74;8.53;
62631;PMS5003;48703;51.248;-0.546;2022-08-18T16:01:13;9.16;8.29;
62631;PMS5003;48703;51.248;-0.546;2022-08-18T16:04:15;9.59;9.59;
62631;PMS5003;48703;51.248;-0.546;2022-08-18T16:07:16;10.11;9.17;
62631;PMS5003;48703;51.248;-0.546;2022-08-18T16:10:18;8.90;8.56;
62631;PMS5003;48703;51.248;-0.546;2022-08-18T16:13:19;9.20;9.03;
62631;PMS5003;48703;51.248;-0.546;2022-08-18T16:16:21;11.64;9.50;
62631;PMS5003;48703;51.248;-0.546;2022-08-18T16:19:22;10.27;8.90;
62631;PMS5003;48703;51.248;-0.546;2022-08-18T16:22:23;9.60;9.60;
62631;PMS5003;48703;51.248;-0.546;2022-08-18T16:25:24;10.94;10.70;
62631;PMS5003;48703;51.248;-0.546;2022-08-18T16:28:25;10.64;10.14;
62631;PMS5003;48703;51.248;-0.546;2022-08-18T16:31:26;12.69;10.13;
62631;PMS5003;48703;51.248;-0.546;2022-08-18T16:34:27;10.54;10.54;
62631;PMS5003;48703;51.248;-0.546;2022-08-18T16:37:29;12.06;11.63;
62631;PMS5003;48703;51.248;-0.546;2022-08-18T16:40:30;10.27;10.27;
62631;PMS5003;48703;51.248;-0.546;2022-08-18T16:43:32;10.07;10.07;
62631;PMS5003;48703;51.248;-0.546;2022-08-18T16:46:33;10.39;10.04;
62631;PMS5003;48703;51.248;-0.546;2022-08-18T16:49:34;10.07;9.91;
62631;PMS5003;48703;51.248;-0.546;2022-08-18T16:52:35;11.94;11.19;
62631;PMS5003;48703;51.248;-0.546;2022-08-18T16:55:37;11.37;10.91;
62631;PMS5003;48703;51.248;-0.546;2022-08-18T16:58:38;11.43;9.97;
62631;PMS5003;48703;51.248;-0.546;2022-08-18T17:01:40;12.11;10.87;
62631;PMS5003;48703;51.248;-0.546;2022-08-18T17:04:41;10.90;10.03;
62631;PMS5003;48703;51.248;-0.546;2022-08-18T17:07:42;12.81;10.71;
62631;PMS5003;48703;51.248;-0.546;2022-08-18T17:10:44;11.93;10.96;
62631;PMS5003;48703;51.248;-0.546;2022-08-18T17:13:46;10.61;10.17;
62631;PMS5003;48703;51.248;-0.546;2022-08-18T17:16:47;12.57;10.77;
62631;PMS5003;48703;51.248;-0.546;2022-08-18T17:19:48;10.23;10.06;
62631;PMS5003;48703;51.248;-0.546;2022-08-18T17:22:49;10.66;10.14;
62631;PMS5003;48703;51.248;-0.546;2022-08-18T17:25:54;10.89;10.33;
62631;PMS5003;48703;51.248;-0.546;2022-08-18T17:28:53;9.11;8.56;
62631;PMS5003;48703;51.248;-0.546;2022-08-18T17:31:56;10.47;10.47;
62631;PMS5003;48703;51.248;-0.546;2022-08-18T17:34:57;11.49;10.77;
62631;PMS5003;48703;51.248;-0.546;2022-08-18T17:37:57;9.49;9.49;
62631;PMS5003;48703;51.248;-0.546;2022-08-18T17:40:57;9.81;9.20;
62631;PMS5003;48703;51.248;-0.546;2022-08-18T17:43:59;10.03;9.30;
62631;PMS5003;48703;51.248;-0.546;2022-08-18T17:47:00;10.56;8.63;
62631;PMS5003;48703;51.248;-0.546;2022-08-18T17:50:03;10.44;9.76;
62631;PMS5003;48703;51.248;-0.546;2022-08-18T17:53:04;9.87;8.43;
62631;PMS5003;48703;51.248;-0.546;2022-08-18T17:56:06;9.41;9.29;
62631;PMS5003;48703;51.248;-0.546;2022-08-18T17:59:07;9.87;9.04;
62631;PMS5003;48703;51.248;-0.546;2022-08-18T18:02:08;9.51;9.51;